Time,TemperatureF,DewpointF,PressureIn,WindDirection,WindDirectionDegrees,WindSpeedMPH,WindSpeedGustMPH,Humidity,HourlyPrecipIn,Conditions,Clouds,dailyrainin,SoftwareType,DateUTC
2013-01-18 00:00:00,42.6,40.2,29.50,ESE,122,12.0,22.0,91,0.04,-RA,,0.00,WeatherDisplay:10.37,2013-01-18 00:00:00,
2013-01-18 00:15:00,42.6,40.2,29.49,SE,142,14.0,23.0,91,0.04,RA,,0.02,WeatherDisplay:10.37,2013-01-18 00:15:00,
2013-01-18 00:30:00,42.6,40.5,29.48,SE,129,12.0,25.0,92,0.08,RA,,0.06,WeatherDisplay:10.37,2013-01-18 00:30:00,
2013-01-18 00:45:00,42.2,40.0,29.48,SE,132,14.0,22.0,92,0.06,OVC,,0.06,WeatherDisplay:10.37,2013-01-18 00:45:00,
2013-01-18 01:00:00,42.1,39.9,29.47,SE,130,13.0,23.0,92,0.08,RA,,0.08,WeatherDisplay:10.37,2013-01-18 01:00:00,
2013-01-18 01:15:00,41.5,39.4,29.46,SE,130,20.0,28.0,92,0.08,-RA,,0.10,WeatherDisplay:10.37,2013-01-18 01:15:00,
2013-01-18 01:30:00,41.2,39.0,29.45,SE,133,17.0,28.0,92,0.06,-RA,,0.12,WeatherDisplay:10.37,2013-01-18 01:30:00,
2013-01-18 01:45:00,41.2,39.0,29.44,SE,132,17.0,22.0,92,0.06,-RA,,0.12,WeatherDisplay:10.37,2013-01-18 01:45:00,
2013-01-18 02:00:00,41.2,39.0,29.43,SE,134,18.0,37.0,92,0.06,-RA,,0.14,WeatherDisplay:10.37,2013-01-18 02:00:00,
2013-01-18 02:15:00,40.8,38.7,29.44,ESE,123,13.0,27.0,92,0.06,-RA,,0.16,WeatherDisplay:10.37,2013-01-18 02:15:00,
2013-01-18 02:30:00,40.6,38.5,29.42,SE,136,20.0,35.0,92,0.04,-RA,,0.16,WeatherDisplay:10.37,2013-01-18 02:30:00,
2013-01-18 02:45:00,40.3,38.1,29.42,SE,135,17.0,24.0,92,0.06,-RA,,0.18,WeatherDisplay:10.37,2013-01-18 02:45:00,
2013-01-18 03:00:00,40.1,38.0,29.41,SE,130,13.0,22.0,92,0.04,-RA,,0.18,WeatherDisplay:10.37,2013-01-18 03:00:00,
2013-01-18 03:15:00,39.9,37.8,29.39,ESE,121,21.0,33.0,92,0.02,OVC,,0.18,WeatherDisplay:10.37,2013-01-18 03:15:00,
2013-01-18 03:30:00,39.9,37.8,29.37,SE,125,14.0,30.0,92,0.04,OVC,,0.20,WeatherDisplay:10.37,2013-01-18 03:30:00,
2013-01-18 03:45:00,39.9,38.1,29.37,SE,137,17.0,34.0,93,0.02,OVC,,0.20,WeatherDisplay:10.37,2013-01-18 03:45:00,
2013-01-18 04:00:00,39.9,38.1,29.36,SE,129,17.0,28.0,93,0.02,OVC,,0.20,WeatherDisplay:10.37,2013-01-18 04:00:00,
2013-01-18 04:15:00,39.8,38.0,29.36,SE,131,14.0,24.0,93,0.02,-RA,,0.20,WeatherDisplay:10.37,2013-01-18 04:15:00,
2013-01-18 04:30:00,39.7,37.9,29.35,SE,133,17.0,28.0,93,0.02,-RA,,0.22,WeatherDisplay:10.37,2013-01-18 04:30:00,
2013-01-18 04:45:00,39.9,38.1,29.34,SE,129,15.0,25.0,93,0.02,-RA,,0.22,WeatherDisplay:10.37,2013-01-18 04:45:00,
2013-01-18 05:15:00,40.3,38.4,29.35,ESE,121,15.0,24.0,93,0.02,OVC,,0.22,WeatherDisplay:10.37,2013-01-18 05:15:00,
2013-01-18 05:30:00,40.1,38.5,29.35,SE,136,15.0,25.0,94,0.00,OVC,,0.22,WeatherDisplay:10.37,2013-01-18 05:30:00,
2013-01-18 05:45:00,39.9,38.3,29.34,SE,136,14.0,23.0,94,0.02,RA,,0.24,WeatherDisplay:10.37,2013-01-18 05:45:00,
2013-01-18 06:00:00,39.9,38.3,29.34,SE,130,13.0,23.0,94,0.02,OVC,,0.24,WeatherDisplay:10.37,2013-01-18 06:00:00,
2013-01-18 06:15:00,39.7,38.1,29.32,SE,136,14.0,25.0,94,0.02,-RA,,0.24,WeatherDisplay:10.37,2013-01-18 06:15:00,
2013-01-18 06:30:00,39.4,37.8,29.32,SE,135,18.0,28.0,94,0.02,-RA,,0.24,WeatherDisplay:10.37,2013-01-18 06:30:00,
2013-01-18 06:45:00,39.2,37.7,29.32,SE,146,15.0,25.0,94,0.00,-RA,,0.24,WeatherDisplay:10.37,2013-01-18 06:45:00,
2013-01-18 07:00:00,39.0,37.2,29.31,SE,133,16.0,22.0,93,0.00,-RA,,0.24,WeatherDisplay:10.37,2013-01-18 07:00:00,
2013-01-18 07:15:00,38.9,37.1,29.31,SE,128,14.0,23.0,93,0.00,-RA,,0.24,WeatherDisplay:10.37,2013-01-18 07:15:00,
2013-01-18 07:30:00,38.8,37.0,29.31,SE,129,13.0,26.0,93,0.00,-RA,,0.24,WeatherDisplay:10.37,2013-01-18 07:30:00,
2013-01-18 07:45:00,39.0,37.2,29.30,SE,134,15.0,26.0,93,0.00,-RA,,0.24,WeatherDisplay:10.37,2013-01-18 07:45:00,
2013-01-18 08:00:00,39.0,37.2,29.31,SE,132,13.0,21.0,93,0.00,-RA,,0.24,WeatherDisplay:10.37,2013-01-18 08:00:00,
2013-01-18 08:15:00,39.0,37.2,29.30,SE,127,7.0,20.0,93,0.00,-RA,,0.24,WeatherDisplay:10.37,2013-01-18 08:15:00,
2013-01-18 08:30:00,39.0,37.2,29.29,ESE,115,13.0,20.0,93,0.00,-RA,,0.24,WeatherDisplay:10.37,2013-01-18 08:30:00,
2013-01-18 08:45:00,39.4,37.8,29.30,ESE,112,13.0,22.0,94,0.00,-RA,,0.24,WeatherDisplay:10.37,2013-01-18 08:45:00,
2013-01-18 09:00:00,39.7,38.1,29.30,ESE,113,10.0,26.0,94,0.00,-RA,,0.24,WeatherDisplay:10.37,2013-01-18 09:00:00,
2013-01-18 09:15:00,39.9,38.3,29.29,ESE,114,12.0,20.0,94,0.00,-DZ,,0.24,WeatherDisplay:10.37,2013-01-18 09:15:00,
2013-01-18 09:30:00,40.1,38.5,29.28,ESE,111,14.0,20.0,94,0.00,-DZ,,0.24,WeatherDisplay:10.37,2013-01-18 09:30:00,
2013-01-18 09:45:00,40.5,38.9,29.28,ESE,110,10.0,20.0,94,0.00,-DZ,,0.24,WeatherDisplay:10.37,2013-01-18 09:45:00,
2013-01-18 10:00:00,40.6,39.0,29.27,ESE,106,13.0,20.0,94,0.00,-DZ,,0.24,WeatherDisplay:10.37,2013-01-18 10:00:00,
2013-01-18 10:15:00,40.6,39.0,29.27,ESE,114,9.0,18.0,94,0.02,-DZ,,0.26,WeatherDisplay:10.37,2013-01-18 10:15:00,
2013-01-18 10:30:00,40.8,39.2,29.27,ESE,108,13.0,20.0,94,0.02,-DZ,,0.26,WeatherDisplay:10.37,2013-01-18 10:30:00,
2013-01-18 10:45:00,40.9,39.3,29.26,ESE,108,12.0,17.0,94,0.02,-DZ,,0.26,WeatherDisplay:10.37,2013-01-18 10:45:00,
2013-01-18 11:00:00,41.0,39.4,29.25,ESE,112,12.0,17.0,94,0.02,-DZ,,0.26,WeatherDisplay:10.37,2013-01-18 11:00:00,
2013-01-18 11:15:00,41.2,39.6,29.25,ESE,108,12.0,18.0,94,0.00,-DZ,,0.26,WeatherDisplay:10.37,2013-01-18 11:15:00,
2013-01-18 11:30:00,41.5,40.2,29.23,ESE,111,10.0,17.0,95,0.00,-DZ,,0.26,WeatherDisplay:10.37,2013-01-18 11:30:00,
2013-01-18 11:45:00,41.8,40.5,29.23,ESE,112,7.0,17.0,95,0.00,-DZ,,0.26,WeatherDisplay:10.37,2013-01-18 11:45:00,
2013-01-18 12:00:00,42.6,41.3,29.22,ESE,114,7.0,13.0,95,0.00,-DZ,,0.26,WeatherDisplay:10.37,2013-01-18 12:00:00,
2013-01-18 12:15:00,43.0,41.6,29.22,ESE,111,10.0,14.0,95,0.00,-DZ,,0.26,WeatherDisplay:10.37,2013-01-18 12:15:00,
2013-01-18 12:30:00,43.5,42.2,29.22,ESE,112,5.0,14.0,95,0.00,-DZ,,0.26,WeatherDisplay:10.37,2013-01-18 12:30:00,
2013-01-18 12:45:00,43.5,42.2,29.21,ESE,108,3.0,7.0,95,0.00,-DZ,,0.26,WeatherDisplay:10.37,2013-01-18 12:45:00,
2013-01-18 13:00:00,43.3,41.7,29.20,ESE,122,2.0,9.0,94,0.00,-DZ,,0.26,WeatherDisplay:10.37,2013-01-18 13:00:00,
2013-01-18 13:15:00,43.3,41.7,29.19,SE,127,5.0,8.0,94,0.00,-DZ,,0.26,WeatherDisplay:10.37,2013-01-18 13:15:00,
2013-01-18 13:30:00,43.3,41.7,29.19,ESE,118,5.0,11.0,94,0.00,-DZ,,0.26,WeatherDisplay:10.37,2013-01-18 13:30:00,
2013-01-18 13:45:00,43.6,42.2,29.17,ESE,117,6.0,12.0,95,0.00,-DZ,,0.26,WeatherDisplay:10.37,2013-01-18 13:45:00,
2013-01-18 14:00:00,43.7,42.4,29.17,ESE,120,6.0,12.0,95,0.00,-DZ,,0.26,WeatherDisplay:10.37,2013-01-18 14:00:00,
2013-01-18 14:15:00,43.7,42.1,29.17,SE,126,5.0,10.0,94,0.00,-DZ,,0.26,WeatherDisplay:10.37,2013-01-18 14:15:00,
2013-01-18 14:30:00,43.7,42.1,29.17,SE,125,3.0,10.0,94,0.00,-DZ,,0.26,WeatherDisplay:10.37,2013-01-18 14:30:00,
2013-01-18 14:45:00,43.7,42.1,29.17,ESE,123,5.0,12.0,94,0.00,-DZ,,0.26,WeatherDisplay:10.37,2013-01-18 14:45:00,
2013-01-18 15:00:00,43.6,42.0,29.17,SE,125,6.0,10.0,94,0.00,-DZ,,0.26,WeatherDisplay:10.37,2013-01-18 15:00:00,
2013-01-18 15:15:00,43.5,41.9,29.17,SE,130,5.0,12.0,94,0.00,BKN,,0.26,WeatherDisplay:10.37,2013-01-18 15:15:00,
2013-01-18 15:30:00,43.4,41.8,29.17,SE,128,6.0,8.0,94,0.02,RA,,0.28,WeatherDisplay:10.37,2013-01-18 15:30:00,
2013-01-18 15:45:00,43.1,41.5,29.17,ESE,118,7.0,9.0,94,0.08,RA,,0.34,WeatherDisplay:10.37,2013-01-18 15:45:00,
2013-01-18 16:00:00,42.7,41.1,29.16,SE,128,6.0,13.0,94,0.10,BKN,,0.36,WeatherDisplay:10.37,2013-01-18 16:00:00,
2013-01-18 16:15:00,42.6,41.0,29.16,ESE,121,5.0,9.0,94,0.10,BKN,,0.36,WeatherDisplay:10.37,2013-01-18 16:15:00,
2013-01-18 16:30:00,42.4,40.8,29.16,ESE,109,5.0,10.0,94,0.08,BKN,,0.36,WeatherDisplay:10.37,2013-01-18 16:30:00,
2013-01-18 16:45:00,42.1,40.5,29.17,ESE,112,3.0,7.0,94,0.02,BKN,,0.36,WeatherDisplay:10.37,2013-01-18 16:45:00,
2013-01-18 17:00:00,42.1,40.5,29.17,ESE,120,2.0,5.0,94,0.02,BKN,,0.38,WeatherDisplay:10.37,2013-01-18 17:00:00,
2013-01-18 17:15:00,42.1,40.5,29.17,SSE,160,5.0,6.0,94,0.06,RA,,0.42,WeatherDisplay:10.37,2013-01-18 17:15:00,
2013-01-18 17:30:00,42.1,40.5,29.17,SE,124,5.0,8.0,94,0.06,BKN,,0.42,WeatherDisplay:10.37,2013-01-18 17:30:00,
2013-01-18 17:45:00,42.1,40.5,29.17,SE,129,6.0,8.0,94,0.06,BKN,,0.42,WeatherDisplay:10.37,2013-01-18 17:45:00,
2013-01-18 18:00:00,42.1,40.5,29.16,SE,136,5.0,8.0,94,0.04,BKN,,0.42,WeatherDisplay:10.37,2013-01-18 18:00:00,
2013-01-18 18:15:00,42.1,40.8,29.17,SE,139,5.0,7.0,95,0.00,BKN,,0.42,WeatherDisplay:10.37,2013-01-18 18:15:00,
2013-01-18 18:30:00,42.1,40.8,29.17,South,171,2.0,7.0,95,0.00,BKN,,0.42,WeatherDisplay:10.37,2013-01-18 18:30:00,
2013-01-18 18:45:00,42.1,40.8,29.18,SSE,148,5.0,9.0,95,0.02,RA,,0.44,WeatherDisplay:10.37,2013-01-18 18:45:00,
2013-01-18 19:00:00,42.2,40.9,29.17,SE,133,2.0,10.0,95,0.04,BKN,,0.46,WeatherDisplay:10.37,2013-01-18 19:00:00,
2013-01-18 19:15:00,42.4,41.1,29.17,SE,139,5.0,9.0,95,0.06,OVC,,0.48,WeatherDisplay:10.37,2013-01-18 19:15:00,
2013-01-18 19:30:00,42.4,41.1,29.17,ESE,104,3.0,6.0,95,0.06,OVC,,0.48,WeatherDisplay:10.37,2013-01-18 19:30:00,
2013-01-18 19:45:00,42.1,40.8,29.17,East,97,2.0,7.0,95,0.04,OVC,,0.48,WeatherDisplay:10.37,2013-01-18 19:45:00,
2013-01-18 20:00:00,42.1,40.8,29.17,ESE,115,5.0,7.0,95,0.02,OVC,,0.48,WeatherDisplay:10.37,2013-01-18 20:00:00,
2013-01-18 20:15:00,41.7,40.4,29.17,ESE,120,6.0,9.0,95,0.00,OVC,,0.48,WeatherDisplay:10.37,2013-01-18 20:15:00,
2013-01-18 20:30:00,41.5,40.2,29.17,ESE,121,6.0,7.0,95,0.00,OVC,,0.48,WeatherDisplay:10.37,2013-01-18 20:30:00,
2013-01-18 20:45:00,41.2,39.9,29.17,SE,125,5.0,8.0,95,0.00,OVC,,0.48,WeatherDisplay:10.37,2013-01-18 20:45:00,
2013-01-18 21:00:00,41.2,39.9,29.17,SE,126,3.0,7.0,95,0.00,OVC,,0.48,WeatherDisplay:10.37,2013-01-18 21:00:00,
2013-01-18 21:15:00,41.2,39.9,29.17,ESE,119,3.0,7.0,95,0.00,OVC,,0.48,WeatherDisplay:10.37,2013-01-18 21:15:00,
2013-01-18 21:30:00,41.2,39.9,29.17,ESE,105,5.0,8.0,95,0.00,OVC,,0.48,WeatherDisplay:10.37,2013-01-18 21:30:00,
2013-01-18 21:45:00,41.0,39.7,29.17,ESE,107,7.0,11.0,95,0.00,OVC,,0.48,WeatherDisplay:10.37,2013-01-18 21:45:00,
2013-01-18 22:00:00,40.8,39.5,29.17,ESE,112,7.0,12.0,95,0.00,OVC,,0.48,WeatherDisplay:10.37,2013-01-18 22:00:00,
2013-01-18 22:15:00,40.6,39.3,29.16,ESE,110,6.0,12.0,95,0.00,OVC,,0.48,WeatherDisplay:10.37,2013-01-18 22:15:00,
2013-01-18 22:30:00,40.5,39.1,29.17,ESE,109,6.0,10.0,95,0.00,OVC,,0.48,WeatherDisplay:10.37,2013-01-18 22:30:00,
2013-01-18 22:45:00,40.5,39.1,29.17,ESE,116,8.0,14.0,95,0.00,OVC,,0.48,WeatherDisplay:10.37,2013-01-18 22:45:00,
2013-01-18 23:00:00,40.1,38.8,29.17,ESE,110,9.0,15.0,95,0.00,OVC,,0.48,WeatherDisplay:10.37,2013-01-18 23:00:00,
2013-01-18 23:15:00,39.9,38.6,29.17,ESE,108,9.0,15.0,95,0.00,OVC,,0.48,WeatherDisplay:10.37,2013-01-18 23:15:00,
2013-01-18 23:30:00,39.9,38.6,29.17,ESE,103,9.0,15.0,95,0.00,OVC,,0.48,WeatherDisplay:10.37,2013-01-18 23:30:00,
2013-01-18 23:45:00,39.6,38.2,29.16,ESE,109,8.0,15.0,95,0.00,OVC,,0.48,WeatherDisplay:10.37,2013-01-18 23:45:00,